METAR Data
IDs: Format: Raw Decoded Include TAF

Data at: 1908 UTC 25 Sep 2020

KRNH 251855Z AUTO 16010G15KT 10SM CLR 26/17 A2969 RMK AO2 T02560165
KRNH 251835Z AUTO 17011G14KT 10SM CLR 25/16 A2970 RMK AO2 T02470162
KRNH 251815Z AUTO 19013G18KT 10SM CLR 26/16 A2971 RMK AO2 T02550161
KRNH 251755Z AUTO 17010G16KT 10SM CLR 25/16 A2970 RMK AO2 T02500160 10250 20134
KRNH 251735Z AUTO 17007KT 10SM CLR 25/16 A2971 RMK AO2 T02450161
KRNH 251715Z AUTO 16012G15KT 10SM CLR 24/16 A2972 RMK AO2 T02350157
KRNH 251655Z AUTO 17009G15KT 10SM CLR 23/16 A2973 RMK AO2 T02300156
KRNH 251635Z AUTO 17006KT 10SM CLR 22/16 A2974 RMK AO2 T02210156
KRNH 251615Z AUTO 14007KT 10SM CLR 22/16 A2975 RMK AO2 T02150155
KRNH 251555Z AUTO 16009KT 10SM CLR 21/16 A2975 RMK AO2 T02050155
KRNH 251535Z AUTO 16008KT 10SM CLR 20/16 A2976 RMK AO2 T01950157
KRNH 251515Z AUTO 15005KT 10SM CLR 18/17 A2977 RMK AO2 T01770171
KRNH 251455Z AUTO 16005KT 10SM SCT007 17/17 A2977 RMK AO2 T01670166
KRNH 251435Z AUTO 14006KT 10SM BKN007 17/17 A2978 RMK AO2 T01660166
KRNH 251415Z AUTO 15005KT 10SM OVC005 16/16 A2979 RMK AO2 T01620162
KRNH 251355Z AUTO 14005KT 7SM OVC005 16/16 A2980 RMK AO2 T01560156
KRNH 251335Z AUTO 16004KT 5SM BR OVC003 15/15 A2980 RMK AO2 T01530153
KRNH 251315Z AUTO 15004KT 4SM BR OVC003 15/15 A2980 RMK AO2 T01500150
KRNH 251255Z AUTO 15004KT 2 1/2SM BR OVC003 15/15 A2980 RMK AO2 T01470147
KRNH 251235Z AUTO 15005KT 3SM BR OVC003 14/14 A2980 RMK AO2 T01440144
KRNH 251215Z AUTO 13003KT 7SM OVC003 14/14 A2980 RMK AO2 T01410141
KRNH 251155Z AUTO 00000KT 7SM BKN005 13/13 A2981 RMK AO2 70009 T01330132 10152 20131
KRNH 251135Z AUTO 00000KT 7SM CLR 13/13 A2981 RMK AO2 T01320131
KRNH 251115Z AUTO 00000KT 7SM CLR 13/13 A2980 RMK AO2 T01330131
KRNH 251055Z AUTO 12003KT 7SM SCT002 14/13 A2980 RMK AO2 T01350132
KRNH 251035Z AUTO 12003KT 4SM BR BKN002 14/14 A2981 RMK AO2 T01370135
KRNH 251015Z AUTO 00000KT 3/4SM BR OVC002 14/14 A2981 RMK AO2 T01380136
KRNH 250955Z AUTO 12004KT 3/4SM BR OVC002 14/14 A2981 RMK AO2 T01410139
KRNH 250935Z AUTO 12003KT 1/2SM FG OVC002 14/14 A2982 RMK AO2 T01420140
KRNH 250915Z AUTO 00000KT 1/2SM FG OVC002 15/14 A2982 RMK AO2 T01450141
KRNH 250855Z AUTO 13003KT 1/4SM FG OVC002 15/14 A2982 RMK AO2 T01450142
KRNH 250835Z AUTO 00000KT 1/2SM FG OVC002 15/14 A2982 RMK AO2 T01460142
KRNH 250815Z AUTO 12003KT 1/2SM FG OVC002 15/14 A2982 RMK AO2 T01470143
KRNH 250755Z AUTO 13004KT 1/2SM FG OVC002 15/15 A2983 RMK AO2 T01500145
KRNH 250735Z AUTO 14005KT 1/2SM FG OVC002 15/15 A2983 RMK AO2 T01500146
KRNH 250715Z AUTO 14004KT 1/2SM FG OVC002 15/15 A2983 RMK AO2 T01510146
KRNH 250655Z AUTO 00000KT 1/2SM FG OVC002 15/15 A2984 RMK AO2 T01520147
KRNH 250635Z AUTO 14003KT 1/2SM FG OVC002 15/15 A2984 RMK AO2 T01520147
KRNH 250615Z AUTO 12003KT 1/2SM FG OVC002 15/15 A2984 RMK AO2 T01520146
KRNH 250555Z AUTO 12003KT 1/2SM FG OVC002 15/14 A2985 RMK AO2 T01500144 10203 20143 402430143
KRNH 250535Z AUTO 11004KT 1 1/4SM BR BKN002 15/14 A2985 RMK AO2 T01490142
KRNH 250515Z AUTO 12004KT 5SM BR CLR 15/14 A2985 RMK AO2 T01450136
KRNH 250455Z AUTO 10003KT 7SM CLR 14/13 A2985 RMK AO2 T01440131
KRNH 250435Z AUTO 00000KT 7SM CLR 15/13 A2986 RMK AO2 T01450132
KRNH 250415Z AUTO 00000KT 10SM CLR 15/13 A2986 RMK AO2 T01470133
KRNH 250355Z AUTO 00000KT 10SM CLR 15/14 A2986 RMK AO2 T01510135
KRNH 250335Z AUTO 11003KT 10SM CLR 15/14 A2986 RMK AO2 T01520136
KRNH 250315Z AUTO 00000KT 10SM CLR 16/14 A2986 RMK AO2 T01550137
KRNH 250255Z AUTO 11004KT 10SM CLR 16/14 A2985 RMK AO2 T01570137
KRNH 250235Z AUTO 11004KT 10SM CLR 16/14 A2985 RMK AO2 T01600137
KRNH 250215Z AUTO 11003KT 10SM CLR 16/14 A2986 RMK AO2 T01630140
KRNH 250155Z AUTO 10003KT 10SM CLR 17/14 A2985 RMK AO2 T01660140
KRNH 250135Z AUTO 10003KT 10SM SCT029 SCT037 17/14 A2985 RMK AO2 T01730142
KRNH 250115Z AUTO 09003KT 10SM SCT029 BKN035 BKN041 18/14 A2985 RMK AO2 T01810143
KRNH 250055Z AUTO 06003KT 10SM BKN034 OVC043 18/15 A2986 RMK AO2 T01830145
KRNH 250035Z AUTO 00000KT 10SM SCT036 BKN044 19/14 A2985 RMK AO2 T01900142
KRNH 250015Z AUTO 00000KT 10SM BKN038 OVC044 20/14 A2984 RMK AO2 T01950141
KRNH 242355Z AUTO 00000KT 10SM BKN039 BKN045 20/14 A2984 RMK AO2 T02030140 10243 20203
KRNH 242335Z AUTO 00000KT 10SM SCT035 SCT043 21/14 A2984 RMK AO2 T02110141
KRNH 242315Z AUTO 00000KT 10SM CLR 22/14 A2984 RMK AO2 T02180136
KRNH 242255Z AUTO 00000KT 10SM CLR 22/14 A2984 RMK AO2 T02170135
KRNH 242235Z AUTO 00000KT 10SM CLR 22/14 A2984 RMK AO2 T02160135
KRNH 242215Z AUTO 05004KT 10SM SCT045 SCT060 22/13 A2984 RMK AO2 T02150132
KRNH 242155Z AUTO 05004KT 10SM SCT037 BKN048 BKN060 23/13 A2984 RMK AO2 T02270125
KRNH 242135Z AUTO 07003KT 10SM SCT037 BKN048 BKN055 24/13 A2984 RMK AO2 T02420131
KRNH 242115Z AUTO 00000KT 10SM SCT055 24/13 A2984 RMK AO2 T02380132
KRNH 242055Z AUTO 00000KT 10SM CLR 24/13 A2984 RMK AO2 T02350130
KRNH 242035Z AUTO 09004KT 10SM SCT050 23/14 A2984 RMK AO2 T02300136
KRNH 242015Z AUTO 09003KT 10SM SCT033 OVC050 22/14 A2984 RMK AO2 T02180136
KRNH 241955Z AUTO 07004KT 10SM BKN033 OVC047 22/13 A2984 RMK AO2 T02230132
KRNH 241935Z AUTO 15003KT 10SM SCT035 SCT042 SCT050 24/13 A2984 RMK AO2 T02380131
KRNH 241915Z AUTO 00000KT 10SM SCT032 SCT040 22/14 A2985 RMK AO2 T02170135
KRNH 241855Z AUTO 08006KT 10SM SCT030 BKN036 23/14 A2985 RMK AO2 T02280137
KRNH 241835Z AUTO 04005KT 10SM BKN028 BKN033 22/14 A2985 RMK AO2 T02210136
KRNH 241815Z AUTO 07004KT 10SM BKN028 23/14 A2986 RMK AO2 T02250136
KRNH 241755Z AUTO 00000KT 10SM BKN026 22/13 A2986 RMK AO2 60009 T02200133 10220 20143
KRNH 241735Z AUTO 08007KT 10SM OVC026 21/13 A2987 RMK AO2 T02100134
KRNH 241715Z AUTO 07006KT 10SM SCT026 21/13 A2987 RMK AO2 T02110132
KRNH 241655Z AUTO 04007KT 10SM CLR 21/13 A2987 RMK AO2 T02100133
KRNH 241635Z AUTO 04007KT 10SM CLR 20/13 A2987 RMK AO2 T02040133
KRNH 241615Z AUTO 05007KT 10SM CLR 20/13 A2988 RMK AO2 T02000133
KRNH 241555Z AUTO 06004KT 10SM CLR 20/13 A2988 RMK AO2 T01950131
KRNH 241535Z AUTO 03004KT 10SM CLR 19/13 A2988 RMK AO2 T01900133
KRNH 241515Z AUTO 03004KT 10SM SCT018 17/13 A2987 RMK AO2 T01700131
KRNH 241455Z AUTO 36004KT 10SM CLR 18/14 A2987 RMK AO2 60009 T01750135
KRNH 241435Z AUTO 09006KT 060V120 10SM CLR 18/14 A2982 RMK AO2 T01790136
KRNH 241415Z AUTO 00000KT 10SM CLR 16/13 A2986 RMK AO2 T01620131
KRNH 241355Z AUTO 10004KT 10SM SCT110 15/13 A2983 RMK AO2 P0001 T01510130
KRNH 241335Z AUTO 08006G15KT 10SM BKN110 15/13 A2983 RMK AO2 P0001 T01480127
KRNH 241315Z AUTO 16007KT 10SM -RA SCT042 OVC100 15/13 A2983 RMK AO2 P0001 T01460128
KRNH 241255Z AUTO 16008KT 10SM -RA SCT075 OVC090 15/13 A2985 RMK AO2 P0008 T01450130
KRNH 241235Z AUTO 14005KT 10SM RA SCT075 OVC090 15/13 A2987 RMK AO2 P0007 T01450130
KRNH 241215Z AUTO 12003KT 7SM RA SCT032 SCT047 OVC090 15/13 A2990 RMK AO2 P0004 T01460130
KRNH 241155Z AUTO 00000KT 7SM RA SCT035 BKN060 OVC090 15/13 A2992 RMK AO2 P0006 60026 70026 T01480132 10182 20148
KRNH 241135Z AUTO 16003KT 7SM -RA SCT065 SCT070 OVC090 15/13 A2992 RMK AO2 P0004 T01500133
KRNH 241115Z AUTO 00000KT 7SM -RA SCT022 BKN065 OVC090 15/13 A2992 RMK AO2 P0002 T01510131
KRNH 241055Z AUTO 32003KT 3SM +RA SCT009 BKN032 OVC055 16/13 A2992 RMK AO2 P0020 T01570130
KRNH 241035Z AUTO 17005KT 10SM -RA OVC055 17/12 A2988 RMK AO2 T01660124
KRNH 241015Z AUTO 08007KT 10SM OVC049 17/13 A2988 RMK AO2 T01650126
KRNH 240955Z AUTO 08008KT 10SM BKN049 OVC120 17/13 A2988 RMK AO2 T01650132
KRNH 240935Z AUTO 06008KT 10SM BKN049 BKN110 16/13 A2988 RMK AO2 T01620132
KRNH 240915Z AUTO 05009G15KT 10SM SCT041 SCT065 BKN110 17/14 A2988 RMK AO2 T01660140
KRNH 240855Z AUTO 04012G17KT 10SM -RA OVC041 17/14 A2989 RMK AO2 T01730142
KRNH 240835Z AUTO 03007G16KT 10SM BKN037 BKN046 OVC050 18/14 A2991 RMK AO2 T01800141
KRNH 240815Z AUTO 36012KT 10SM SCT046 BKN050 OVC120 18/15 A2990 RMK AO2 T01770145
KRNH 240755Z AUTO 06003KT 10SM BKN050 BKN075 18/14 A2988 RMK AO2 T01750140
KRNH 240735Z AUTO 16003KT 10SM BKN050 BKN060 17/14 A2989 RMK AO2 T01710140
KRNH 240715Z AUTO 00000KT 10SM BKN060 BKN075 17/14 A2989 RMK AO2 T01730138